sensor_id;sensor_type;location;lat;lon;timestamp;pressure;altitude;pressure_sealevel;temperature;humidity
73245;BME280;61460;41.158;-73.238;2023-04-05T00:01:57;101756.43;;;26.26;38.90
73245;BME280;61460;41.158;-73.238;2023-04-05T00:04:27;101762.79;;;26.25;38.69
73245;BME280;61460;41.158;-73.238;2023-04-05T00:06:57;101765.85;;;26.24;39.00
73245;BME280;61460;41.158;-73.238;2023-04-05T00:09:28;101768.63;;;26.21;38.84
73245;BME280;61460;41.158;-73.238;2023-04-05T00:11:59;101765.32;;;26.20;38.82
73245;BME280;61460;41.158;-73.238;2023-04-05T00:14:29;101769.35;;;26.26;38.83
73245;BME280;61460;41.158;-73.238;2023-04-05T00:16:59;101780.72;;;26.18;39.32
73245;BME280;61460;41.158;-73.238;2023-04-05T00:19:30;101787.73;;;26.22;39.44
73245;BME280;61460;41.158;-73.238;2023-04-05T00:22:00;101785.41;;;26.28;38.93
73245;BME280;61460;41.158;-73.238;2023-04-05T00:24:31;101779.12;;;26.24;39.27
73245;BME280;61460;41.158;-73.238;2023-04-05T00:27:01;101786.54;;;26.30;39.43
73245;BME280;61460;41.158;-73.238;2023-04-05T00:29:32;101788.90;;;26.34;39.16
73245;BME280;61460;41.158;-73.238;2023-04-05T00:32:02;101792.78;;;26.37;39.01
73245;BME280;61460;41.158;-73.238;2023-04-05T00:34:32;101797.83;;;26.38;39.10
73245;BME280;61460;41.158;-73.238;2023-04-05T00:37:02;101797.74;;;26.34;38.90
73245;BME280;61460;41.158;-73.238;2023-04-05T00:39:33;101796.76;;;26.14;39.84
73245;BME280;61460;41.158;-73.238;2023-04-05T00:42:04;101795.10;;;26.30;39.66
73245;BME280;61460;41.158;-73.238;2023-04-05T00:44:34;101796.21;;;26.32;39.11
73245;BME280;61460;41.158;-73.238;2023-04-05T00:47:05;101797.71;;;26.39;39.58
73245;BME280;61460;41.158;-73.238;2023-04-05T00:49:35;101799.45;;;26.35;39.77
73245;BME280;61460;41.158;-73.238;2023-04-05T00:52:05;101803.54;;;26.42;39.59
73245;BME280;61460;41.158;-73.238;2023-04-05T00:54:35;101807.18;;;26.23;39.99
73245;BME280;61460;41.158;-73.238;2023-04-05T00:57:06;101815.22;;;26.41;39.75
73245;BME280;61460;41.158;-73.238;2023-04-05T00:59:36;101818.94;;;26.36;39.96
73245;BME280;61460;41.158;-73.238;2023-04-05T01:02:14;101819.77;;;26.38;40.03
73245;BME280;61460;41.158;-73.238;2023-04-05T01:04:37;101824.79;;;26.45;39.86
73245;BME280;61460;41.158;-73.238;2023-04-05T01:07:12;101823.23;;;26.32;40.38
73245;BME280;61460;41.158;-73.238;2023-04-05T01:09:47;101821.56;;;26.48;39.61
73245;BME280;61460;41.158;-73.238;2023-04-05T01:12:11;101821.02;;;26.45;39.99
73245;BME280;61460;41.158;-73.238;2023-04-05T01:14:45;101824.52;;;26.45;39.57
73245;BME280;61460;41.158;-73.238;2023-04-05T01:17:10;101830.22;;;26.50;39.86
73245;BME280;61460;41.158;-73.238;2023-04-05T01:19:40;101832.27;;;26.55;39.29
73245;BME280;61460;41.158;-73.238;2023-04-05T01:24:54;101844.06;;;26.55;39.97
73245;BME280;61460;41.158;-73.238;2023-04-05T01:27:15;101846.37;;;26.52;39.89
73245;BME280;61460;41.158;-73.238;2023-04-05T01:29:49;101855.17;;;26.49;39.70
73245;BME280;61460;41.158;-73.238;2023-04-05T01:32:23;101853.94;;;26.46;39.76
73245;BME280;61460;41.158;-73.238;2023-04-05T01:34:49;101862.02;;;26.40;39.51
73245;BME280;61460;41.158;-73.238;2023-04-05T01:37:17;101870.95;;;26.43;40.22
73245;BME280;61460;41.158;-73.238;2023-04-05T01:39:45;101872.46;;;26.48;39.80
73245;BME280;61460;41.158;-73.238;2023-04-05T01:42:20;101876.98;;;26.45;40.09
73245;BME280;61460;41.158;-73.238;2023-04-05T01:44:46;101881.88;;;26.48;40.28
73245;BME280;61460;41.158;-73.238;2023-04-05T01:47:15;101886.90;;;26.47;39.66
73245;BME280;61460;41.158;-73.238;2023-04-05T01:49:46;101887.72;;;26.42;40.46
73245;BME280;61460;41.158;-73.238;2023-04-05T01:52:16;101887.20;;;26.35;40.35
73245;BME280;61460;41.158;-73.238;2023-04-05T01:54:47;101887.89;;;26.33;40.67
73245;BME280;61460;41.158;-73.238;2023-04-05T01:57:17;101889.56;;;26.21;40.74
73245;BME280;61460;41.158;-73.238;2023-04-05T01:59:48;101889.86;;;26.18;41.00
73245;BME280;61460;41.158;-73.238;2023-04-05T02:02:18;101896.46;;;26.11;40.89
73245;BME280;61460;41.158;-73.238;2023-04-05T02:04:49;101899.61;;;26.06;40.88
73245;BME280;61460;41.158;-73.238;2023-04-05T02:07:19;101899.86;;;26.03;40.89
73245;BME280;61460;41.158;-73.238;2023-04-05T02:09:50;101902.30;;;25.98;40.99
73245;BME280;61460;41.158;-73.238;2023-04-05T02:12:20;101897.90;;;25.91;41.08
73245;BME280;61460;41.158;-73.238;2023-04-05T02:14:51;101891.67;;;25.94;41.31
73245;BME280;61460;41.158;-73.238;2023-04-05T02:17:22;101894.97;;;25.92;41.28
73245;BME280;61460;41.158;-73.238;2023-04-05T02:19:52;101896.66;;;25.89;41.22
73245;BME280;61460;41.158;-73.238;2023-04-05T02:22:24;101907.41;;;25.93;41.64
73245;BME280;61460;41.158;-73.238;2023-04-05T02:24:54;101905.26;;;25.78;41.51
73245;BME280;61460;41.158;-73.238;2023-04-05T02:27:25;101912.63;;;25.76;41.40
73245;BME280;61460;41.158;-73.238;2023-04-05T02:29:55;101910.29;;;25.77;41.53
73245;BME280;61460;41.158;-73.238;2023-04-05T02:32:25;101907.19;;;25.80;41.54
73245;BME280;61460;41.158;-73.238;2023-04-05T02:34:55;101901.32;;;25.78;41.64
73245;BME280;61460;41.158;-73.238;2023-04-05T02:37:25;101899.80;;;25.77;41.41
73245;BME280;61460;41.158;-73.238;2023-04-05T02:39:55;101905.32;;;25.81;41.31
73245;BME280;61460;41.158;-73.238;2023-04-05T02:42:26;101915.15;;;25.76;41.44
73245;BME280;61460;41.158;-73.238;2023-04-05T02:44:56;101916.15;;;25.77;41.28
73245;BME280;61460;41.158;-73.238;2023-04-05T02:47:27;101919.12;;;25.78;41.24
73245;BME280;61460;41.158;-73.238;2023-04-05T02:49:57;101917.00;;;25.76;41.34
73245;BME280;61460;41.158;-73.238;2023-04-05T02:52:27;101916.35;;;25.69;41.46
73245;BME280;61460;41.158;-73.238;2023-04-05T02:54:58;101921.94;;;25.69;41.49
73245;BME280;61460;41.158;-73.238;2023-04-05T02:57:29;101919.82;;;25.69;41.35
73245;BME280;61460;41.158;-73.238;2023-04-05T02:59:59;101927.86;;;25.68;41.42
73245;BME280;61460;41.158;-73.238;2023-04-05T03:02:30;101942.05;;;25.66;41.39
73245;BME280;61460;41.158;-73.238;2023-04-05T03:05:00;101960.61;;;25.65;41.41
73245;BME280;61460;41.158;-73.238;2023-04-05T03:07:31;101972.19;;;25.61;41.57
73245;BME280;61460;41.158;-73.238;2023-04-05T03:10:02;101976.90;;;25.65;41.43
73245;BME280;61460;41.158;-73.238;2023-04-05T03:12:32;101983.83;;;25.63;41.56
73245;BME280;61460;41.158;-73.238;2023-04-05T03:15:02;101986.73;;;25.65;41.55
73245;BME280;61460;41.158;-73.238;2023-04-05T03:17:32;101993.57;;;25.59;41.78
73245;BME280;61460;41.158;-73.238;2023-04-05T03:20:03;101991.34;;;25.55;41.78
73245;BME280;61460;41.158;-73.238;2023-04-05T03:22:33;101996.03;;;25.61;41.77
73245;BME280;61460;41.158;-73.238;2023-04-05T03:25:05;102006.09;;;25.57;41.89
73245;BME280;61460;41.158;-73.238;2023-04-05T03:27:35;102000.37;;;25.58;41.88
73245;BME280;61460;41.158;-73.238;2023-04-05T03:30:06;102011.57;;;25.72;41.94
73245;BME280;61460;41.158;-73.238;2023-04-05T03:32:35;102014.15;;;25.73;42.07
73245;BME280;61460;41.158;-73.238;2023-04-05T03:35:06;102013.63;;;25.66;42.29
73245;BME280;61460;41.158;-73.238;2023-04-05T03:37:37;102010.91;;;25.58;41.88
73245;BME280;61460;41.158;-73.238;2023-04-05T03:40:08;102013.64;;;25.46;42.35
73245;BME280;61460;41.158;-73.238;2023-04-05T03:42:38;102015.57;;;25.56;42.06
73245;BME280;61460;41.158;-73.238;2023-04-05T03:45:09;102014.64;;;25.47;42.48
73245;BME280;61460;41.158;-73.238;2023-04-05T03:47:38;102008.06;;;25.55;42.28
73245;BME280;61460;41.158;-73.238;2023-04-05T03:50:09;102009.76;;;25.57;41.99
73245;BME280;61460;41.158;-73.238;2023-04-05T03:52:39;102015.31;;;25.55;42.10
73245;BME280;61460;41.158;-73.238;2023-04-05T03:55:10;102022.97;;;25.46;42.17
73245;BME280;61460;41.158;-73.238;2023-04-05T03:57:41;102022.96;;;25.63;42.26
73245;BME280;61460;41.158;-73.238;2023-04-05T04:00:12;102025.51;;;25.54;42.70
73245;BME280;61460;41.158;-73.238;2023-04-05T04:02:43;102031.36;;;25.53;42.62
73245;BME280;61460;41.158;-73.238;2023-04-05T04:05:13;102030.84;;;25.55;42.61
73245;BME280;61460;41.158;-73.238;2023-04-05T04:07:43;102033.32;;;25.47;42.90
73245;BME280;61460;41.158;-73.238;2023-04-05T04:10:14;102027.68;;;25.56;42.57
73245;BME280;61460;41.158;-73.238;2023-04-05T04:12:44;102035.28;;;25.51;42.61
73245;BME280;61460;41.158;-73.238;2023-04-05T04:15:14;102036.63;;;25.50;42.67
73245;BME280;61460;41.158;-73.238;2023-04-05T04:17:44;102040.07;;;25.49;42.58
73245;BME280;61460;41.158;-73.238;2023-04-05T04:20:15;102035.28;;;25.49;42.64
73245;BME280;61460;41.158;-73.238;2023-04-05T04:22:46;102040.07;;;25.46;42.78
73245;BME280;61460;41.158;-73.238;2023-04-05T04:25:17;102033.65;;;25.46;42.69
73245;BME280;61460;41.158;-73.238;2023-04-05T04:27:47;102040.12;;;25.48;42.59
73245;BME280;61460;41.158;-73.238;2023-04-05T04:30:18;102042.40;;;25.51;42.94
73245;BME280;61460;41.158;-73.238;2023-04-05T04:32:48;102049.50;;;25.57;42.85
73245;BME280;61460;41.158;-73.238;2023-04-05T04:35:19;102060.15;;;25.55;42.92
73245;BME280;61460;41.158;-73.238;2023-04-05T04:37:52;102063.45;;;25.57;43.12
73245;BME280;61460;41.158;-73.238;2023-04-05T04:40:19;102074.68;;;25.59;42.67
73245;BME280;61460;41.158;-73.238;2023-04-05T04:42:49;102075.31;;;25.51;42.70
73245;BME280;61460;41.158;-73.238;2023-04-05T04:45:19;102088.49;;;25.50;42.96
73245;BME280;61460;41.158;-73.238;2023-04-05T04:47:50;102093.57;;;25.61;42.69
73245;BME280;61460;41.158;-73.238;2023-04-05T04:50:21;102110.84;;;25.58;42.60
73245;BME280;61460;41.158;-73.238;2023-04-05T04:52:52;102105.48;;;25.51;42.77
73245;BME280;61460;41.158;-73.238;2023-04-05T04:55:22;102099.22;;;25.54;42.55
73245;BME280;61460;41.158;-73.238;2023-04-05T04:57:53;102103.70;;;25.41;42.86
73245;BME280;61460;41.158;-73.238;2023-04-05T05:00:23;102109.92;;;25.40;42.58
73245;BME280;61460;41.158;-73.238;2023-04-05T05:02:54;102111.18;;;25.45;42.52
73245;BME280;61460;41.158;-73.238;2023-04-05T05:05:24;102110.15;;;25.53;42.17
73245;BME280;61460;41.158;-73.238;2023-04-05T05:07:55;102114.90;;;25.55;42.42
73245;BME280;61460;41.158;-73.238;2023-04-05T05:10:26;102120.44;;;25.56;42.57
73245;BME280;61460;41.158;-73.238;2023-04-05T05:12:56;102124.61;;;25.50;42.52
73245;BME280;61460;41.158;-73.238;2023-04-05T05:15:27;102123.68;;;25.43;42.76
73245;BME280;61460;41.158;-73.238;2023-04-05T05:17:57;102121.98;;;25.34;42.74
73245;BME280;61460;41.158;-73.238;2023-04-05T05:20:28;102125.71;;;25.37;42.73
73245;BME280;61460;41.158;-73.238;2023-04-05T05:22:59;102123.40;;;25.38;42.49
73245;BME280;61460;41.158;-73.238;2023-04-05T05:25:30;102132.65;;;25.49;42.49
73245;BME280;61460;41.158;-73.238;2023-04-05T05:28:00;102136.73;;;25.48;42.23
73245;BME280;61460;41.158;-73.238;2023-04-05T05:30:31;102146.94;;;25.52;42.07
73245;BME280;61460;41.158;-73.238;2023-04-05T05:33:01;102147.13;;;25.45;42.22
73245;BME280;61460;41.158;-73.238;2023-04-05T05:35:32;102154.18;;;25.49;42.10
73245;BME280;61460;41.158;-73.238;2023-04-05T05:38:03;102155.69;;;25.47;42.25
73245;BME280;61460;41.158;-73.238;2023-04-05T05:40:33;102157.45;;;25.47;42.22
73245;BME280;61460;41.158;-73.238;2023-04-05T05:43:04;102164.69;;;25.52;41.89
73245;BME280;61460;41.158;-73.238;2023-04-05T05:45:35;102166.85;;;25.43;41.81
73245;BME280;61460;41.158;-73.238;2023-04-05T05:48:05;102174.93;;;25.42;41.79
73245;BME280;61460;41.158;-73.238;2023-04-05T05:50:36;102173.78;;;25.36;41.86
73245;BME280;61460;41.158;-73.238;2023-04-05T05:53:07;102180.74;;;25.44;41.84
73245;BME280;61460;41.158;-73.238;2023-04-05T05:55:37;102181.77;;;25.44;41.80
73245;BME280;61460;41.158;-73.238;2023-04-05T05:58:08;102184.79;;;25.43;41.65
73245;BME280;61460;41.158;-73.238;2023-04-05T06:00:38;102189.83;;;25.38;41.83
73245;BME280;61460;41.158;-73.238;2023-04-05T06:03:09;102188.00;;;25.41;41.64
73245;BME280;61460;41.158;-73.238;2023-04-05T06:05:39;102181.02;;;25.38;41.67
73245;BME280;61460;41.158;-73.238;2023-04-05T06:08:10;102181.65;;;25.41;41.56
73245;BME280;61460;41.158;-73.238;2023-04-05T06:10:41;102184.42;;;25.45;41.64
73245;BME280;61460;41.158;-73.238;2023-04-05T06:13:11;102186.04;;;25.38;41.82
73245;BME280;61460;41.158;-73.238;2023-04-05T06:15:42;102185.99;;;25.39;41.65
73245;BME280;61460;41.158;-73.238;2023-04-05T06:18:13;102183.25;;;25.36;41.87
73245;BME280;61460;41.158;-73.238;2023-04-05T06:20:43;102178.34;;;25.35;41.77
73245;BME280;61460;41.158;-73.238;2023-04-05T06:23:14;102178.43;;;25.38;41.77
73245;BME280;61460;41.158;-73.238;2023-04-05T06:25:44;102181.04;;;25.37;41.65
73245;BME280;61460;41.158;-73.238;2023-04-05T06:28:15;102180.83;;;25.39;41.58
73245;BME280;61460;41.158;-73.238;2023-04-05T06:30:46;102177.82;;;25.33;41.70
73245;BME280;61460;41.158;-73.238;2023-04-05T06:33:16;102182.94;;;25.35;41.62
73245;BME280;61460;41.158;-73.238;2023-04-05T06:35:47;102185.55;;;25.34;41.39
73245;BME280;61460;41.158;-73.238;2023-04-05T06:38:18;102191.08;;;25.27;41.65
73245;BME280;61460;41.158;-73.238;2023-04-05T06:40:48;102191.62;;;25.36;41.48
73245;BME280;61460;41.158;-73.238;2023-04-05T06:43:19;102192.54;;;25.31;41.60
73245;BME280;61460;41.158;-73.238;2023-04-05T06:45:50;102190.71;;;25.27;41.61
73245;BME280;61460;41.158;-73.238;2023-04-05T06:48:20;102193.96;;;25.29;41.56
73245;BME280;61460;41.158;-73.238;2023-04-05T06:50:56;102200.75;;;25.30;41.43
73245;BME280;61460;41.158;-73.238;2023-04-05T06:53:22;102206.00;;;25.34;41.33
73245;BME280;61460;41.158;-73.238;2023-04-05T06:55:53;102212.90;;;25.31;41.41
73245;BME280;61460;41.158;-73.238;2023-04-05T06:58:23;102217.33;;;25.28;41.42
73245;BME280;61460;41.158;-73.238;2023-04-05T07:00:54;102216.17;;;25.33;41.33
73245;BME280;61460;41.158;-73.238;2023-04-05T07:03:24;102221.41;;;25.21;41.63
73245;BME280;61460;41.158;-73.238;2023-04-05T07:05:56;102221.10;;;25.32;41.28
73245;BME280;61460;41.158;-73.238;2023-04-05T07:08:26;102227.49;;;25.31;41.13
73245;BME280;61460;41.158;-73.238;2023-04-05T07:10:56;102231.69;;;25.28;41.27
73245;BME280;61460;41.158;-73.238;2023-04-05T07:13:27;102241.61;;;25.28;41.18
73245;BME280;61460;41.158;-73.238;2023-04-05T07:16:01;102246.07;;;25.32;41.04
73245;BME280;61460;41.158;-73.238;2023-04-05T07:18:28;102247.62;;;25.21;41.31
73245;BME280;61460;41.158;-73.238;2023-04-05T07:20:58;102250.71;;;25.28;41.03
73245;BME280;61460;41.158;-73.238;2023-04-05T07:23:30;102250.73;;;25.25;41.37
73245;BME280;61460;41.158;-73.238;2023-04-05T07:26:00;102255.46;;;25.17;41.29
73245;BME280;61460;41.158;-73.238;2023-04-05T07:28:31;102247.88;;;25.09;41.32
73245;BME280;61460;41.158;-73.238;2023-04-05T07:31:02;102248.36;;;25.07;41.48
73245;BME280;61460;41.158;-73.238;2023-04-05T07:33:32;102252.46;;;25.07;41.34
73245;BME280;61460;41.158;-73.238;2023-04-05T07:36:03;102254.69;;;25.02;41.27
73245;BME280;61460;41.158;-73.238;2023-04-05T07:38:33;102253.75;;;25.02;41.32
73245;BME280;61460;41.158;-73.238;2023-04-05T07:41:04;102256.93;;;24.99;41.26
73245;BME280;61460;41.158;-73.238;2023-04-05T07:43:34;102265.52;;;24.98;41.32
73245;BME280;61460;41.158;-73.238;2023-04-05T07:46:05;102269.56;;;24.99;41.18
73245;BME280;61460;41.158;-73.238;2023-04-05T07:48:36;102261.85;;;25.01;41.20
73245;BME280;61460;41.158;-73.238;2023-04-05T07:51:08;102260.78;;;24.95;41.28
73245;BME280;61460;41.158;-73.238;2023-04-05T07:53:37;102260.74;;;24.94;41.18
73245;BME280;61460;41.158;-73.238;2023-04-05T07:56:09;102260.85;;;24.94;41.14
73245;BME280;61460;41.158;-73.238;2023-04-05T07:58:39;102260.10;;;24.85;41.28
73245;BME280;61460;41.158;-73.238;2023-04-05T08:01:10;102272.83;;;24.85;41.19
73245;BME280;61460;41.158;-73.238;2023-04-05T08:03:40;102282.17;;;24.91;41.08
73245;BME280;61460;41.158;-73.238;2023-04-05T08:06:11;102274.81;;;24.81;41.18
73245;BME280;61460;41.158;-73.238;2023-04-05T08:08:41;102267.48;;;24.85;41.07
73245;BME280;61460;41.158;-73.238;2023-04-05T08:11:12;102260.72;;;24.77;41.38
73245;BME280;61460;41.158;-73.238;2023-04-05T08:13:42;102265.28;;;24.87;41.09
73245;BME280;61460;41.158;-73.238;2023-04-05T08:16:13;102266.82;;;24.79;41.48
73245;BME280;61460;41.158;-73.238;2023-04-05T08:18:44;102261.23;;;24.91;41.41
73245;BME280;61460;41.158;-73.238;2023-04-05T08:21:14;102246.66;;;24.96;41.20
73245;BME280;61460;41.158;-73.238;2023-04-05T08:23:45;102235.15;;;24.84;41.48
73245;BME280;61460;41.158;-73.238;2023-04-05T08:26:16;102222.26;;;24.80;41.76
73245;BME280;61460;41.158;-73.238;2023-04-05T08:28:46;102225.47;;;24.73;41.71
73245;BME280;61460;41.158;-73.238;2023-04-05T08:31:17;102235.25;;;24.82;41.66
73245;BME280;61460;41.158;-73.238;2023-04-05T08:33:47;102242.42;;;24.80;41.49
73245;BME280;61460;41.158;-73.238;2023-04-05T08:36:18;102248.59;;;24.98;41.35
73245;BME280;61460;41.158;-73.238;2023-04-05T08:38:49;102253.02;;;24.96;41.41
73245;BME280;61460;41.158;-73.238;2023-04-05T08:41:22;102254.41;;;24.90;41.46
73245;BME280;61460;41.158;-73.238;2023-04-05T08:43:55;102257.73;;;24.87;41.49
73245;BME280;61460;41.158;-73.238;2023-04-05T08:46:22;102258.53;;;24.88;41.58
73245;BME280;61460;41.158;-73.238;2023-04-05T08:48:51;102263.93;;;24.86;41.35
73245;BME280;61460;41.158;-73.238;2023-04-05T08:51:23;102262.68;;;24.87;41.54
73245;BME280;61460;41.158;-73.238;2023-04-05T08:53:53;102256.74;;;24.90;41.17
73245;BME280;61460;41.158;-73.238;2023-04-05T08:56:26;102257.32;;;24.78;41.25
73245;BME280;61460;41.158;-73.238;2023-04-05T08:59:00;102259.54;;;24.78;41.22
73245;BME280;61460;41.158;-73.238;2023-04-05T09:01:28;102257.04;;;24.68;41.71
73245;BME280;61460;41.158;-73.238;2023-04-05T09:03:56;102255.92;;;24.79;41.33
73245;BME280;61460;41.158;-73.238;2023-04-05T09:06:26;102257.77;;;24.73;41.54
73245;BME280;61460;41.158;-73.238;2023-04-05T09:08:57;102259.30;;;24.68;41.43
73245;BME280;61460;41.158;-73.238;2023-04-05T09:11:27;102260.45;;;24.63;41.45
73245;BME280;61460;41.158;-73.238;2023-04-05T09:13:57;102263.46;;;24.63;41.23
73245;BME280;61460;41.158;-73.238;2023-04-05T09:16:28;102271.97;;;24.64;41.37
73245;BME280;61460;41.158;-73.238;2023-04-05T09:18:59;102276.87;;;24.76;41.20
73245;BME280;61460;41.158;-73.238;2023-04-05T09:21:30;102278.62;;;24.74;41.15
73245;BME280;61460;41.158;-73.238;2023-04-05T09:24:00;102282.79;;;24.72;40.94
73245;BME280;61460;41.158;-73.238;2023-04-05T09:26:31;102284.22;;;24.75;40.88
73245;BME280;61460;41.158;-73.238;2023-04-05T09:29:01;102286.17;;;24.67;40.98
73245;BME280;61460;41.158;-73.238;2023-04-05T09:31:33;102298.39;;;24.69;41.01
73245;BME280;61460;41.158;-73.238;2023-04-05T09:34:04;102311.29;;;24.68;40.85
73245;BME280;61460;41.158;-73.238;2023-04-05T09:36:34;102309.71;;;24.62;40.99
73245;BME280;61460;41.158;-73.238;2023-04-05T09:39:05;102310.98;;;24.66;40.92
73245;BME280;61460;41.158;-73.238;2023-04-05T09:41:35;102312.79;;;24.64;40.88
73245;BME280;61460;41.158;-73.238;2023-04-05T09:44:05;102333.77;;;24.60;40.92
73245;BME280;61460;41.158;-73.238;2023-04-05T09:46:36;102337.06;;;24.63;40.69
73245;BME280;61460;41.158;-73.238;2023-04-05T09:49:06;102339.62;;;24.58;40.85
73245;BME280;61460;41.158;-73.238;2023-04-05T09:51:37;102340.70;;;24.55;40.90
73245;BME280;61460;41.158;-73.238;2023-04-05T09:54:09;102344.72;;;24.58;41.05
73245;BME280;61460;41.158;-73.238;2023-04-05T09:56:40;102361.88;;;24.55;41.05
73245;BME280;61460;41.158;-73.238;2023-04-05T09:59:10;102367.73;;;24.54;41.18
73245;BME280;61460;41.158;-73.238;2023-04-05T10:01:43;102362.81;;;24.60;40.93
73245;BME280;61460;41.158;-73.238;2023-04-05T10:04:10;102365.26;;;24.56;40.98
73245;BME280;61460;41.158;-73.238;2023-04-05T10:06:42;102366.06;;;24.57;41.18
73245;BME280;61460;41.158;-73.238;2023-04-05T10:09:12;102370.34;;;24.54;40.87
73245;BME280;61460;41.158;-73.238;2023-04-05T10:11:43;102378.50;;;24.54;40.82
73245;BME280;61460;41.158;-73.238;2023-04-05T10:14:13;102378.79;;;24.55;40.95
73245;BME280;61460;41.158;-73.238;2023-04-05T10:16:49;102384.81;;;24.49;41.45
73245;BME280;61460;41.158;-73.238;2023-04-05T10:19:19;102385.07;;;24.57;41.42
73245;BME280;61460;41.158;-73.238;2023-04-05T10:21:46;102384.64;;;24.43;41.14
73245;BME280;61460;41.158;-73.238;2023-04-05T10:24:24;102381.62;;;24.58;41.53
73245;BME280;61460;41.158;-73.238;2023-04-05T10:26:55;102388.62;;;24.53;41.30
73245;BME280;61460;41.158;-73.238;2023-04-05T10:29:23;102380.51;;;24.46;41.22
73245;BME280;61460;41.158;-73.238;2023-04-05T10:31:52;102388.86;;;24.46;41.49
73245;BME280;61460;41.158;-73.238;2023-04-05T10:34:27;102391.54;;;24.50;41.46
73245;BME280;61460;41.158;-73.238;2023-04-05T10:36:52;102390.87;;;24.38;41.40
73245;BME280;61460;41.158;-73.238;2023-04-05T10:39:25;102393.53;;;24.43;41.92
73245;BME280;61460;41.158;-73.238;2023-04-05T10:41:53;102395.27;;;24.51;41.90
73245;BME280;61460;41.158;-73.238;2023-04-05T10:44:21;102397.03;;;24.45;41.52
73245;BME280;61460;41.158;-73.238;2023-04-05T10:46:52;102404.29;;;24.43;41.70
73245;BME280;61460;41.158;-73.238;2023-04-05T10:49:28;102410.00;;;24.37;41.71
73245;BME280;61460;41.158;-73.238;2023-04-05T10:51:53;102406.12;;;24.39;41.52
73245;BME280;61460;41.158;-73.238;2023-04-05T10:54:23;102402.19;;;24.43;41.19
73245;BME280;61460;41.158;-73.238;2023-04-05T10:56:54;102406.70;;;24.36;41.57
73245;BME280;61460;41.158;-73.238;2023-04-05T10:59:25;102415.34;;;24.52;41.52
73245;BME280;61460;41.158;-73.238;2023-04-05T11:01:56;102414.78;;;24.43;41.71
73245;BME280;61460;41.158;-73.238;2023-04-05T11:04:26;102415.74;;;24.43;41.59
73245;BME280;61460;41.158;-73.238;2023-04-05T11:09:27;102399.69;;;24.48;41.28
73245;BME280;61460;41.158;-73.238;2023-04-05T11:11:58;102402.42;;;24.54;41.59
73245;BME280;61460;41.158;-73.238;2023-04-05T11:14:35;102400.44;;;24.57;41.44
73245;BME280;61460;41.158;-73.238;2023-04-05T11:16:59;102405.42;;;24.60;41.57
73245;BME280;61460;41.158;-73.238;2023-04-05T11:22:00;102419.72;;;24.50;41.42
73245;BME280;61460;41.158;-73.238;2023-04-05T11:27:08;102414.12;;;24.39;41.46
73245;BME280;61460;41.158;-73.238;2023-04-05T11:32:11;102425.27;;;24.29;41.88
73245;BME280;61460;41.158;-73.238;2023-04-05T11:34:35;102431.20;;;24.58;41.23
73245;BME280;61460;41.158;-73.238;2023-04-05T11:37:04;102428.47;;;24.65;41.17
73245;BME280;61460;41.158;-73.238;2023-04-05T11:39:35;102429.68;;;24.63;41.39
73245;BME280;61460;41.158;-73.238;2023-04-05T11:42:08;102427.91;;;24.67;41.16
73245;BME280;61460;41.158;-73.238;2023-04-05T11:44:42;102434.12;;;24.66;41.48
73245;BME280;61460;41.158;-73.238;2023-04-05T11:47:06;102453.51;;;24.79;41.38
73245;BME280;61460;41.158;-73.238;2023-04-05T11:49:37;102454.96;;;24.64;41.58
73245;BME280;61460;41.158;-73.238;2023-04-05T11:52:11;102462.91;;;24.64;41.46
73245;BME280;61460;41.158;-73.238;2023-04-05T11:54:39;102477.56;;;24.59;41.29
73245;BME280;61460;41.158;-73.238;2023-04-05T11:57:11;102486.40;;;24.59;41.12
73245;BME280;61460;41.158;-73.238;2023-04-05T11:59:40;102484.94;;;24.57;40.95
73245;BME280;61460;41.158;-73.238;2023-04-05T12:02:10;102482.40;;;24.57;40.86
73245;BME280;61460;41.158;-73.238;2023-04-05T12:04:41;102488.34;;;24.52;40.81
73245;BME280;61460;41.158;-73.238;2023-04-05T12:07:13;102490.76;;;24.53;40.74
73245;BME280;61460;41.158;-73.238;2023-04-05T12:12:15;102494.77;;;24.43;40.69
73245;BME280;61460;41.158;-73.238;2023-04-05T12:14:43;102498.17;;;24.45;40.63
73245;BME280;61460;41.158;-73.238;2023-04-05T12:17:14;102501.47;;;24.44;40.57
73245;BME280;61460;41.158;-73.238;2023-04-05T12:19:44;102495.85;;;24.40;40.62
73245;BME280;61460;41.158;-73.238;2023-04-05T12:22:15;102506.50;;;24.43;40.50
73245;BME280;61460;41.158;-73.238;2023-04-05T12:24:45;102505.69;;;24.38;40.54
73245;BME280;61460;41.158;-73.238;2023-04-05T12:27:15;102501.16;;;24.38;40.50
73245;BME280;61460;41.158;-73.238;2023-04-05T12:32:15;102498.10;;;24.30;40.57
73245;BME280;61460;41.158;-73.238;2023-04-05T12:34:47;102486.76;;;24.32;40.48
73245;BME280;61460;41.158;-73.238;2023-04-05T12:37:17;102488.39;;;24.30;40.48
73245;BME280;61460;41.158;-73.238;2023-04-05T12:39:48;102483.49;;;24.28;40.55
73245;BME280;61460;41.158;-73.238;2023-04-05T12:42:18;102485.56;;;24.24;40.48
73245;BME280;61460;41.158;-73.238;2023-04-05T12:47:20;102479.08;;;24.21;40.45
73245;BME280;61460;41.158;-73.238;2023-04-05T12:49:50;102479.85;;;24.24;40.36
73245;BME280;61460;41.158;-73.238;2023-04-05T12:52:20;102470.25;;;24.20;40.41
73245;BME280;61460;41.158;-73.238;2023-04-05T12:54:53;102472.43;;;24.20;40.33
73245;BME280;61460;41.158;-73.238;2023-04-05T12:57:28;102476.31;;;24.23;40.25
73245;BME280;61460;41.158;-73.238;2023-04-05T12:59:52;102472.22;;;24.21;40.12
73245;BME280;61460;41.158;-73.238;2023-04-05T13:02:23;102465.67;;;24.19;40.06
73245;BME280;61460;41.158;-73.238;2023-04-05T13:04:54;102470.82;;;24.17;40.05
73245;BME280;61460;41.158;-73.238;2023-04-05T13:07:24;102459.99;;;24.10;40.11